This is the latest recevied weather packets stored in our database for station/object ON4CDJ-13. If no packets are shown the sender has not sent any weather packets the latest 10 day(s).
| Time | Temp. | Humidity | Pressure | Rain* | Wind** | Luminosity | Snow |
|---|---|---|---|---|---|---|---|
| 1778003724 | 13.89° C | 65% | 1010.1 hPa | 0 mm | - | 52 W/m² | - |
| 1777995364 | 15.56° C | 68% | 1010.4 hPa | 0 mm | - | 326 W/m² | - |
| 1777991771 | 14.44° C | 78% | 1010.6 hPa | 0 mm | - | 299 W/m² | - |
| 1777985787 | 13.33° C | 81% | 1011.4 hPa | 0 mm | - | 108 W/m² | - |
| 1777982183 | 12.22° C | 85% | 1011.7 hPa | 0 mm | - | 97 W/m² | - |
| 1777981560 | 12.22° C | 85% | 1011.8 hPa | 0 mm | - | 81 W/m² | - |
| 1777975567 | 11.67° C | 89% | 1012.1 hPa | 0 mm | - | 75 W/m² | - |
| 1777973779 | 11.67° C | 89% | 1011.9 hPa | 0 mm | - | 94 W/m² | - |
| 1777970757 | 11.11° C | 91% | 1012.2 hPa | 0 mm | - | 81 W/m² | - |
| 1777967726 | 10.56° C | 93% | 1012.3 hPa | 0 mm | - | 89 W/m² | - |
| 1777965965 | 10.56° C | 94% | 1012.4 hPa | 0 mm | - | 46 W/m² | - |
| 1777964132 | 10.56° C | 94% | 1012.3 hPa | 0 mm | - | 38 W/m² | - |
| 1777962959 | 10.56° C | 94% | 1012.4 hPa | 0 mm | - | 43 W/m² | - |
| 1777952760 | 11.67° C | 89% | 1012.5 hPa | 0 mm | - | 0 W/m² | - |
| 1777941961 | 12.22° C | 90% | 1012.9 hPa | 0 mm | - | 0 W/m² | - |
| 1777938328 | 12.22° C | 91% | 1013.4 hPa | 0 mm | - | 0 W/m² | - |
| 1777937153 | 12.22° C | 91% | 1013.5 hPa | 0 mm | - | 0 W/m² | - |
| 1777932952 | 12.22° C | 92% | 1013.9 hPa | 0 mm | - | 0 W/m² | - |
| 1777931166 | 12.22° C | 92% | 1014 hPa | 0 mm | - | 0 W/m² | - |
| 1777930549 | 12.22° C | 92% | 1014.2 hPa | 0 mm | - | 0 W/m² | - |
| 1777926965 | 12.78° C | 92% | 1014.2 hPa | 0 mm | - | 0 W/m² | - |
| 1777926349 | 12.78° C | 92% | 1014.1 hPa | 0 mm | - | 0 W/m² | - |
| 1777924548 | 13.33° C | 91% | 1014.1 hPa | 0 mm | - | 0 W/m² | - |
| 1777923319 | 13.33° C | 90% | 1013.9 hPa | 0 mm | - | 0 W/m² | - |
| 1777917939 | 14.44° C | 87% | 1013.7 hPa | 0 mm | - | 78 W/m² | - |
* Rain latest hour (hover to see other rain measurements)
** Current wind speed in m/s (hover to see current wind gust speed)